Time;durP1;ratioP1;P1;durP2;ratioP2;P2;SDS_P1;SDS_P2;PMS_P1;PMS_P2;Temp;Humidity;BMP_temperature;BMP_pressure;BME280_temperature;BME280_humidity;BME280_pressure;Samples;Min_cycle;Max_cycle;Signal;HPM_P1;HPM_P2
2022/01/02 00:00:32;;;;;;;7.00;3.37;;;13.90;99.90;;;;;;5032728;28;20162;-70
2022/01/02 00:03:06;;;;;;;8.10;3.53;;;13.90;99.90;;;;;;5032739;28;20269;-71
2022/01/02 00:05:35;;;;;;;7.30;4.10;;;13.90;99.90;;;;;;5032657;28;20173;-70
2022/01/02 00:08:07;;;;;;;6.33;3.57;;;13.90;99.90;;;;;;5032369;28;20200;-71
2022/01/02 00:10:35;;;;;;;8.57;3.77;;;13.90;99.90;;;;;;5032407;28;20590;-71
2022/01/02 00:13:01;;;;;;;6.27;3.57;;;13.90;99.90;;;;;;5032187;28;20170;-70
2022/01/02 00:15:27;;;;;;;10.57;3.70;;;14.00;99.90;;;;;;5032541;28;20273;-70
2022/01/02 00:17:55;;;;;;;6.40;3.40;;;13.90;99.90;;;;;;5032400;28;20238;-70
2022/01/02 00:20:31;;;;;;;6.30;3.83;;;13.90;99.90;;;;;;5032675;28;20178;-70
2022/01/02 00:23:02;;;;;;;8.17;3.77;;;13.80;99.90;;;;;;5032314;28;20178;-70
2022/01/02 00:25:33;;;;;;;6.23;3.30;;;13.90;99.90;;;;;;5032881;28;20182;-70
2022/01/02 00:28:00;;;;;;;6.53;4.00;;;14.00;99.90;;;;;;5035245;28;20213;-70
2022/01/02 00:30:26;;;;;;;8.03;3.53;;;13.90;99.90;;;;;;5035892;28;20158;-69
2022/01/02 00:32:52;;;;;;;7.50;3.83;;;13.90;99.90;;;;;;5036104;28;20177;-70
2022/01/02 00:35:18;;;;;;;6.47;3.20;;;13.90;99.90;;;;;;5035955;28;20257;-69
2022/01/02 00:37:44;;;;;;;7.07;3.43;;;13.90;99.90;;;;;;5035629;28;20554;-70
2022/01/02 00:40:10;;;;;;;8.90;3.80;;;13.90;99.90;;;;;;5035407;28;20245;-70
2022/01/02 00:42:39;;;;;;;5.43;3.63;;;13.90;99.90;;;;;;5035670;28;20638;-70
2022/01/02 00:45:05;;;;;;;10.03;3.97;;;13.90;99.90;;;;;;5035664;28;20244;-70
2022/01/02 00:47:36;;;;;;;7.53;3.67;;;13.70;99.90;;;;;;5035508;28;20170;-70
2022/01/02 00:50:10;;;;;;;9.10;3.80;;;13.70;99.90;;;;;;5035682;28;20170;-69
2022/01/02 00:52:42;;;;;;;8.90;4.00;;;13.70;99.90;;;;;;5035724;28;20184;-70
2022/01/02 00:55:14;;;;;;;7.47;3.57;;;13.60;99.90;;;;;;5035057;28;20213;-71
2022/01/02 00:57:42;;;;;;;5.23;3.67;;;13.60;99.90;;;;;;5035531;28;20165;-69
2022/01/02 01:00:13;;;;;;;9.40;4.30;;;13.50;99.90;;;;;;5035376;28;20193;-69
2022/01/02 01:02:49;;;;;;;7.97;3.90;;;13.50;99.90;;;;;;5034049;28;20181;-70
2022/01/02 01:05:28;;;;;;;8.23;3.90;;;13.40;99.90;;;;;;5035318;28;20181;-70
2022/01/02 01:07:56;;;;;;;6.17;3.80;;;13.30;99.90;;;;;;5035028;28;20704;-70
2022/01/02 01:10:23;;;;;;;7.60;4.57;;;13.20;99.90;;;;;;5034781;28;20170;-70
2022/01/02 01:12:55;;;;;;;6.83;4.00;;;13.20;99.90;;;;;;5035161;28;20170;-70
2022/01/02 01:15:22;;;;;;;7.67;4.13;;;13.10;99.90;;;;;;5035101;28;20219;-69
2022/01/02 01:17:49;;;;;;;8.80;4.47;;;13.10;99.90;;;;;;5035158;28;20166;-70
2022/01/02 01:20:15;;;;;;;6.37;4.07;;;13.10;99.90;;;;;;5035157;28;20296;-70
2022/01/02 01:22:42;;;;;;;6.10;3.80;;;13.10;99.90;;;;;;5034941;28;20183;-71
2022/01/02 01:25:15;;;;;;;13.40;4.30;;;13.10;99.90;;;;;;5034359;28;20236;-70
2022/01/02 01:27:41;;;;;;;12.13;4.30;;;13.10;99.90;;;;;;5034762;28;20236;-70
2022/01/02 01:30:08;;;;;;;4.93;4.10;;;13.00;99.90;;;;;;5034882;28;20177;-72
2022/01/02 01:32:33;;;;;;;8.47;4.53;;;13.00;99.90;;;;;;5034823;28;20182;-71
2022/01/02 01:34:59;;;;;;;9.03;4.77;;;12.90;99.90;;;;;;5034603;28;20178;-72
2022/01/02 01:37:25;;;;;;;11.97;5.60;;;12.90;99.90;;;;;;5032208;28;20261;-71
2022/01/02 01:39:50;;;;;;;11.37;6.70;;;12.90;99.90;;;;;;5032918;28;20198;-72
2022/01/02 01:42:27;;;;;;;11.97;6.87;;;13.00;99.90;;;;;;5034702;28;20514;-71
2022/01/02 01:45:28;;;;;;;11.97;6.70;;;13.00;99.90;;;;;;5034922;28;20260;-72
2022/01/02 01:47:38;;;;;;;15.87;7.87;;;12.90;99.90;;;;;;5034238;28;20748;-72
2022/01/02 01:50:04;;;;;;;14.53;7.10;;;12.90;99.90;;;;;;5034195;28;20265;-71
2022/01/02 01:52:30;;;;;;;10.33;6.77;;;12.90;99.90;;;;;;5032904;28;20206;-72
2022/01/02 01:54:56;;;;;;;13.83;6.97;;;12.90;99.90;;;;;;5034046;28;20198;-71
2022/01/02 01:57:21;;;;;;;9.27;6.33;;;12.90;99.90;;;;;;5034324;28;20594;-72
2022/01/02 01:59:48;;;;;;;12.63;6.87;;;12.90;99.90;;;;;;5034278;28;20174;-72
2022/01/02 02:02:15;;;;;;;13.20;6.37;;;12.90;99.90;;;;;;5034281;28;20173;-71
2022/01/02 02:04:41;;;;;;;11.70;6.07;;;12.90;99.90;;;;;;5034625;28;20174;-71
2022/01/02 02:07:08;;;;;;;9.33;5.97;;;13.00;99.90;;;;;;5033699;28;20170;-71
2022/01/02 02:09:50;;;;;;;9.20;4.70;;;12.90;99.90;;;;;;5034011;28;20213;-71
2022/01/02 02:12:16;;;;;;;8.63;4.53;;;13.00;99.90;;;;;;5034076;28;20162;-71
2022/01/02 02:14:42;;;;;;;9.10;4.30;;;13.00;99.90;;;;;;5034171;28;20204;-71
2022/01/02 02:17:07;;;;;;;8.03;3.80;;;13.00;99.90;;;;;;5034189;28;20236;-72
2022/01/02 02:19:33;;;;;;;6.33;4.37;;;13.10;99.90;;;;;;5033638;28;20174;-71
2022/01/02 02:21:59;;;;;;;6.00;4.23;;;13.10;99.90;;;;;;5033532;28;20176;-70
2022/01/02 02:24:24;;;;;;;5.23;4.00;;;13.00;99.90;;;;;;5033888;28;20233;-71
2022/01/02 02:26:51;;;;;;;4.27;3.60;;;13.10;99.90;;;;;;5033882;28;20169;-70
2022/01/02 02:29:16;;;;;;;5.93;4.27;;;13.10;99.90;;;;;;5033685;28;20237;-71
2022/01/02 02:31:42;;;;;;;6.50;4.07;;;13.10;99.90;;;;;;5033975;28;20170;-70
2022/01/02 02:34:08;;;;;;;7.70;3.63;;;13.20;99.90;;;;;;5033543;28;20253;-70
2022/01/02 02:36:33;;;;;;;4.67;3.90;;;13.20;99.90;;;;;;5033041;28;20178;-70
2022/01/02 02:38:59;;;;;;;8.37;3.90;;;13.20;99.90;;;;;;5033028;28;20177;-70
2022/01/02 02:41:30;;;;;;;6.13;3.67;;;13.20;99.90;;;;;;5033468;28;20256;-71
2022/01/02 02:44:05;;;;;;;6.53;4.03;;;13.30;99.90;;;;;;5033330;28;20202;-71
2022/01/02 02:49:15;;;;;;;6.60;3.57;;;13.30;99.90;;;;;;5032946;28;20259;-71
2022/01/02 02:54:21;;;;;;;8.00;3.73;;;13.40;99.90;;;;;;5033236;28;20182;-70
2022/01/02 02:56:57;;;;;;;7.57;3.37;;;13.50;99.90;;;;;;5033239;28;20265;-70
2022/01/02 02:59:25;;;;;;;5.90;3.70;;;13.50;99.90;;;;;;5033153;28;20204;-71
2022/01/02 03:01:51;;;;;;;6.60;3.93;;;13.50;99.90;;;;;;5033362;28;20204;-70
2022/01/02 03:04:18;;;;;;;7.60;3.70;;;13.50;99.90;;;;;;5033007;28;20759;-70
2022/01/02 03:06:44;;;;;;;9.10;4.53;;;13.50;99.90;;;;;;5032779;28;20367;-70
2022/01/02 03:09:10;;;;;;;7.97;3.80;;;13.50;99.90;;;;;;5032974;28;20284;-71
2022/01/02 03:11:40;;;;;;;4.77;3.67;;;13.40;99.90;;;;;;5033172;28;20189;-71
2022/01/02 03:14:09;;;;;;;8.83;3.43;;;13.40;99.90;;;;;;5033272;28;20174;-71
2022/01/02 03:16:34;;;;;;;3.93;3.50;;;13.30;99.90;;;;;;5033164;28;20607;-71
2022/01/02 03:19:00;;;;;;;6.53;3.80;;;13.30;99.90;;;;;;5032975;28;20173;-71
2022/01/02 03:21:26;;;;;;;5.87;3.50;;;13.20;99.90;;;;;;5033012;28;20283;-70
2022/01/02 03:23:52;;;;;;;7.33;3.80;;;13.30;99.90;;;;;;5033082;28;20799;-71
2022/01/02 03:26:18;;;;;;;5.23;3.70;;;13.20;99.90;;;;;;5031703;28;20545;-70
2022/01/02 03:28:45;;;;;;;4.77;3.50;;;13.10;99.90;;;;;;5032906;28;20205;-71
2022/01/02 03:31:11;;;;;;;5.37;3.80;;;13.10;99.90;;;;;;5033258;28;20208;-70
2022/01/02 03:33:37;;;;;;;4.03;3.40;;;13.00;99.90;;;;;;5032862;28;20181;-70
2022/01/02 03:36:04;;;;;;;6.73;3.40;;;13.10;99.90;;;;;;5032741;28;20513;-70
2022/01/02 03:38:30;;;;;;;5.43;3.60;;;13.10;99.90;;;;;;5032878;28;20178;-70
2022/01/02 03:40:56;;;;;;;3.87;3.47;;;13.20;99.90;;;;;;5033019;28;20268;-70
2022/01/02 03:43:21;;;;;;;6.23;3.17;;;13.20;99.90;;;;;;5032980;28;20253;-70
2022/01/02 03:45:47;;;;;;;5.63;3.37;;;13.20;99.90;;;;;;5032896;28;20197;-70
2022/01/02 03:48:13;;;;;;;4.83;3.50;;;13.20;99.90;;;;;;5032529;28;20252;-70
2022/01/02 03:50:39;;;;;;;6.13;3.53;;;13.20;99.90;;;;;;5032557;28;20170;-70
2022/01/02 03:53:07;;;;;;;5.33;3.27;;;13.20;99.90;;;;;;5032864;28;20572;-71
2022/01/02 03:55:34;;;;;;;5.60;3.43;;;13.20;99.90;;;;;;5032583;28;20244;-71
2022/01/02 03:58:00;;;;;;;8.63;3.27;;;13.20;99.90;;;;;;5032797;28;20174;-71
2022/01/02 04:00:26;;;;;;;5.20;3.30;;;13.20;99.90;;;;;;5033205;28;20166;-70
2022/01/02 04:02:52;;;;;;;6.00;3.53;;;13.20;99.90;;;;;;5036496;28;20269;-71
2022/01/02 04:05:18;;;;;;;5.40;3.40;;;13.30;99.90;;;;;;5036149;28;20261;-70
2022/01/02 04:07:44;;;;;;;7.33;3.57;;;13.20;99.90;;;;;;5035122;28;20185;-70
2022/01/02 04:10:14;;;;;;;9.57;3.30;;;13.30;99.90;;;;;;5036419;28;20170;-70
2022/01/02 04:12:40;;;;;;;6.47;3.43;;;13.30;99.90;;;;;;5036361;28;20170;-69
2022/01/02 04:15:07;;;;;;;7.47;3.60;;;13.30;99.90;;;;;;5036138;28;20231;-70
2022/01/02 04:17:34;;;;;;;4.93;3.10;;;13.30;99.90;;;;;;5036254;28;20169;-70
2022/01/02 04:20:04;;;;;;;8.07;3.40;;;13.30;99.90;;;;;;5035981;28;20205;-70
2022/01/02 04:22:30;;;;;;;4.00;3.13;;;13.30;99.90;;;;;;5036034;28;20170;-70
2022/01/02 04:24:56;;;;;;;6.03;3.13;;;13.40;99.90;;;;;;5035673;28;20343;-70
2022/01/02 04:27:23;;;;;;;5.40;3.27;;;13.40;99.90;;;;;;5036228;28;20197;-70
2022/01/02 04:29:49;;;;;;;6.03;3.40;;;13.50;99.90;;;;;;5035884;28;20287;-70
2022/01/02 04:32:15;;;;;;;4.23;3.17;;;13.50;99.90;;;;;;5035501;28;20230;-70
2022/01/02 04:34:41;;;;;;;5.27;3.10;;;13.50;99.90;;;;;;5036023;28;20261;-70
2022/01/02 04:37:07;;;;;;;3.80;3.30;;;13.50;99.90;;;;;;5035831;28;20304;-70
2022/01/02 04:39:33;;;;;;;4.63;3.30;;;13.60;99.90;;;;;;5035793;28;20170;-70
2022/01/02 04:41:59;;;;;;;4.67;3.00;;;13.60;99.90;;;;;;5036008;28;20178;-70
2022/01/02 04:44:25;;;;;;;4.20;3.30;;;13.70;99.90;;;;;;5035543;28;20182;-69
2022/01/02 04:46:51;;;;;;;5.20;3.20;;;13.60;99.90;;;;;;5034129;28;20166;-69
2022/01/02 04:49:17;;;;;;;6.07;2.97;;;13.70;99.90;;;;;;5035131;28;20669;-70
2022/01/02 04:51:42;;;;;;;5.40;3.47;;;13.60;99.90;;;;;;5034075;28;20177;-70
2022/01/02 04:54:08;;;;;;;6.23;3.20;;;13.60;99.90;;;;;;5035494;28;20255;-70
2022/01/02 04:56:34;;;;;;;6.33;3.30;;;13.50;99.90;;;;;;5034258;28;20298;-70
2022/01/02 04:58:59;;;;;;;8.17;3.33;;;13.60;99.90;;;;;;5035294;28;20184;-70
2022/01/02 05:01:25;;;;;;;5.50;3.13;;;13.50;99.90;;;;;;5035104;28;20929;-70
2022/01/02 05:03:51;;;;;;;5.97;3.50;;;13.50;99.90;;;;;;5035215;28;20567;-70
2022/01/02 05:06:16;;;;;;;5.00;3.53;;;13.50;99.90;;;;;;5035244;28;20181;-70
2022/01/02 05:08:44;;;;;;;7.43;3.60;;;13.50;99.90;;;;;;5035266;28;20245;-71
2022/01/02 05:11:10;;;;;;;5.63;3.33;;;13.60;99.90;;;;;;5034621;28;20224;-70
2022/01/02 05:13:35;;;;;;;5.67;3.43;;;13.50;99.90;;;;;;5034845;28;20174;-70
2022/01/02 05:16:01;;;;;;;4.80;3.13;;;13.60;99.90;;;;;;5033329;28;20166;-69
2022/01/02 05:18:26;;;;;;;5.33;3.03;;;13.60;99.90;;;;;;5034961;28;20630;-70
2022/01/02 05:20:52;;;;;;;3.37;3.07;;;13.50;99.90;;;;;;5033648;28;20174;-70
2022/01/02 05:23:19;;;;;;;3.87;3.23;;;13.30;99.90;;;;;;5034783;28;20570;-70
2022/01/02 05:25:45;;;;;;;4.97;3.20;;;13.20;99.90;;;;;;5034885;28;20178;-70
2022/01/02 05:28:11;;;;;;;4.67;3.07;;;13.10;99.90;;;;;;5034768;28;20213;-70
2022/01/02 05:30:38;;;;;;;4.50;3.30;;;13.00;99.90;;;;;;5034430;28;20247;-70
2022/01/02 05:33:04;;;;;;;4.73;3.37;;;12.90;99.90;;;;;;5035101;28;20197;-70
2022/01/02 05:35:31;;;;;;;4.63;3.23;;;12.90;99.90;;;;;;5033204;28;20197;-70
2022/01/02 05:37:57;;;;;;;3.07;2.77;;;12.90;99.90;;;;;;5034266;28;20743;-70
2022/01/02 05:40:30;;;;;;;3.23;2.80;;;12.90;99.90;;;;;;5034677;28;20192;-70
2022/01/02 05:42:57;;;;;;;3.93;3.00;;;12.90;99.90;;;;;;5034473;28;20575;-69
2022/01/02 05:45:22;;;;;;;3.57;3.10;;;12.90;99.90;;;;;;5034144;28;20169;-71
2022/01/02 05:47:48;;;;;;;3.70;2.73;;;12.90;99.90;;;;;;5034555;28;20634;-70
2022/01/02 05:50:13;;;;;;;3.10;2.80;;;13.00;99.90;;;;;;5033925;28;20184;-70
2022/01/02 05:52:39;;;;;;;5.30;3.10;;;13.10;99.90;;;;;;5034401;28;20261;-71
2022/01/02 05:55:05;;;;;;;6.47;2.83;;;13.10;99.90;;;;;;5034334;28;20194;-70
2022/01/02 05:57:32;;;;;;;4.07;2.70;;;13.10;99.90;;;;;;5034237;28;20162;-70
2022/01/02 05:59:58;;;;;;;3.17;2.80;;;13.10;99.90;;;;;;5033865;28;20178;-70
2022/01/02 06:02:23;;;;;;;5.73;2.97;;;13.10;99.90;;;;;;5034348;28;20535;-70
2022/01/02 06:04:49;;;;;;;4.00;2.93;;;13.10;99.90;;;;;;5034007;28;20212;-70
2022/01/02 06:07:15;;;;;;;3.83;3.07;;;13.20;99.90;;;;;;5034110;28;20190;-70
2022/01/02 06:09:41;;;;;;;3.13;2.87;;;13.20;99.90;;;;;;5033977;28;20205;-70
2022/01/02 06:12:07;;;;;;;6.87;3.00;;;13.20;99.90;;;;;;5033689;28;20271;-70
2022/01/02 06:14:33;;;;;;;3.83;2.63;;;13.30;99.90;;;;;;5033320;28;20307;-69
2022/01/02 06:16:58;;;;;;;4.57;3.07;;;13.40;99.90;;;;;;5032563;28;20257;-69
2022/01/02 06:19:24;;;;;;;3.00;2.80;;;13.40;99.90;;;;;;5033788;28;20181;-70
2022/01/02 06:21:51;;;;;;;3.70;2.43;;;13.40;99.90;;;;;;5033585;28;20173;-70
2022/01/02 06:24:16;;;;;;;5.57;3.00;;;13.50;99.90;;;;;;5031779;28;20228;-69
2022/01/02 06:26:42;;;;;;;4.47;3.27;;;13.60;99.90;;;;;;5033815;28;20625;-69
2022/01/02 06:29:08;;;;;;;2.80;2.50;;;13.60;99.90;;;;;;5032944;28;20658;-69
2022/01/02 06:31:33;;;;;;;2.97;2.60;;;13.60;99.90;;;;;;5033706;28;20269;-69
2022/01/02 06:33:59;;;;;;;3.37;3.03;;;13.70;99.90;;;;;;5033708;28;20185;-69
2022/01/02 06:36:25;;;;;;;4.03;2.67;;;13.70;99.90;;;;;;5033793;28;20174;-70
2022/01/02 06:38:50;;;;;;;6.47;2.90;;;13.70;99.90;;;;;;5033559;28;20162;-70
2022/01/02 06:41:17;;;;;;;3.57;2.57;;;13.70;99.90;;;;;;5033263;28;20621;-70
2022/01/02 06:43:43;;;;;;;4.17;2.33;;;13.80;99.90;;;;;;5033079;28;20204;-69
2022/01/02 06:46:09;;;;;;;3.87;2.40;;;13.80;99.90;;;;;;5033320;28;20177;-69
2022/01/02 06:48:35;;;;;;;2.80;2.40;;;13.80;99.90;;;;;;5032821;28;20210;-70
2022/01/02 06:51:01;;;;;;;3.43;2.83;;;13.80;99.90;;;;;;5033359;28;20166;-71
2022/01/02 06:53:27;;;;;;;3.47;2.60;;;13.80;99.90;;;;;;5033361;28;20537;-71
2022/01/02 06:55:52;;;;;;;5.57;2.80;;;13.80;99.90;;;;;;5031717;28;20284;-70
2022/01/02 06:58:18;;;;;;;5.40;2.47;;;13.80;99.90;;;;;;5032506;28;20181;-70
2022/01/02 07:00:44;;;;;;;5.23;2.50;;;13.90;99.90;;;;;;5033343;28;20182;-70
2022/01/02 07:03:10;;;;;;;2.77;2.20;;;14.00;99.90;;;;;;5033220;28;20177;-70
2022/01/02 07:05:36;;;;;;;6.23;2.80;;;14.00;99.90;;;;;;5033329;28;20181;-70
2022/01/02 07:08:02;;;;;;;3.07;2.47;;;14.00;99.90;;;;;;5032957;28;20205;-70
2022/01/02 07:10:28;;;;;;;5.20;2.40;;;14.00;99.90;;;;;;5032894;28;20267;-70
2022/01/02 07:12:53;;;;;;;4.87;2.63;;;14.00;99.90;;;;;;5032284;28;20170;-70
2022/01/02 07:15:19;;;;;;;4.37;2.50;;;14.10;99.90;;;;;;5032983;28;20980;-70
2022/01/02 07:17:44;;;;;;;3.73;2.37;;;14.10;99.90;;;;;;5032606;28;20645;-69
2022/01/02 07:20:11;;;;;;;5.37;2.63;;;14.00;99.90;;;;;;5033312;28;20170;-69
2022/01/02 07:22:37;;;;;;;4.13;2.60;;;14.00;99.90;;;;;;5032732;28;20634;-70
2022/01/02 07:25:04;;;;;;;10.80;3.10;;;14.10;99.90;;;;;;5032557;28;20301;-69
2022/01/02 07:27:30;;;;;;;3.03;2.73;;;14.00;99.90;;;;;;5032153;28;20184;-69
2022/01/02 07:29:56;;;;;;;2.90;2.70;;;14.00;99.90;;;;;;5032672;28;20304;-69
2022/01/02 07:32:22;;;;;;;3.83;2.57;;;14.00;99.90;;;;;;5032902;28;20172;-69
2022/01/02 07:34:48;;;;;;;4.80;2.80;;;13.90;99.90;;;;;;5032970;28;20228;-70
2022/01/02 07:37:14;;;;;;;3.53;2.83;;;13.90;99.90;;;;;;5034954;28;20656;-70
2022/01/02 07:39:40;;;;;;;4.80;2.60;;;13.90;99.90;;;;;;5036407;28;20181;-70
2022/01/02 07:42:06;;;;;;;3.97;2.70;;;13.90;99.90;;;;;;5036287;28;20177;-70
2022/01/02 07:44:31;;;;;;;3.37;3.07;;;13.90;99.90;;;;;;5035388;28;20174;-70
2022/01/02 07:46:57;;;;;;;6.57;3.10;;;13.90;99.90;;;;;;5035947;28;20676;-70
2022/01/02 07:49:23;;;;;;;3.43;3.13;;;13.90;99.90;;;;;;5036196;28;20567;-69
2022/01/02 07:51:49;;;;;;;7.20;3.00;;;13.70;99.90;;;;;;5036826;28;20208;-69
2022/01/02 07:54:14;;;;;;;3.87;3.30;;;13.70;99.90;;;;;;5036145;28;20206;-69
2022/01/02 07:56:40;;;;;;;4.43;3.23;;;13.60;99.90;;;;;;5035878;28;20174;-70
2022/01/02 07:59:07;;;;;;;5.87;3.57;;;13.60;99.90;;;;;;5036411;28;20180;-69
2022/01/02 08:01:32;;;;;;;4.40;3.40;;;13.60;99.90;;;;;;5036028;28;20181;-69
2022/01/02 08:03:58;;;;;;;4.60;3.00;;;13.60;99.90;;;;;;5034998;28;20627;-70
2022/01/02 08:06:24;;;;;;;4.93;3.20;;;13.60;99.90;;;;;;5036301;28;20666;-70
2022/01/02 08:08:49;;;;;;;3.70;3.40;;;13.60;99.90;;;;;;5035771;28;20576;-70
2022/01/02 08:11:16;;;;;;;5.63;3.70;;;13.60;99.90;;;;;;5035729;28;20170;-69
2022/01/02 08:13:44;;;;;;;8.33;3.70;;;13.50;99.90;;;;;;5035741;28;20170;-70
2022/01/02 08:16:09;;;;;;;4.70;3.33;;;13.50;99.90;;;;;;5035422;28;20230;-69
2022/01/02 08:18:35;;;;;;;4.03;3.63;;;13.50;99.90;;;;;;5036105;28;20630;-70
2022/01/02 08:21:00;;;;;;;3.77;3.40;;;13.40;99.90;;;;;;5035943;28;20216;-70
2022/01/02 08:23:26;;;;;;;6.40;3.77;;;13.40;99.90;;;;;;5035494;28;20221;-70
2022/01/02 08:25:52;;;;;;;4.10;3.70;;;13.40;99.90;;;;;;5035685;28;20182;-70
2022/01/02 08:28:19;;;;;;;5.27;4.00;;;13.40;99.90;;;;;;5035451;28;20251;-69
2022/01/02 08:30:45;;;;;;;7.03;4.13;;;13.30;99.90;;;;;;5036270;28;20255;-70
2022/01/02 08:33:10;;;;;;;3.97;3.67;;;13.40;99.90;;;;;;5034573;28;20197;-70
2022/01/02 08:35:37;;;;;;;9.00;3.87;;;13.50;99.90;;;;;;5035626;28;20630;-70
2022/01/02 08:38:03;;;;;;;6.00;4.43;;;13.60;99.90;;;;;;5035458;28;20181;-70
2022/01/02 08:40:29;;;;;;;5.93;4.10;;;13.50;99.90;;;;;;5035449;28;20169;-71
2022/01/02 08:42:55;;;;;;;5.23;3.73;;;13.60;99.90;;;;;;5035567;28;20641;-70
2022/01/02 08:45:20;;;;;;;4.83;4.03;;;13.50;99.90;;;;;;5033775;28;20178;-70
2022/01/02 08:47:46;;;;;;;5.13;4.20;;;13.50;99.90;;;;;;5034659;28;20177;-70
2022/01/02 08:50:12;;;;;;;5.40;3.93;;;13.50;99.90;;;;;;5034669;28;20209;-70
2022/01/02 08:52:38;;;;;;;5.33;4.10;;;13.40;99.90;;;;;;5035408;28;20201;-69
2022/01/02 08:55:05;;;;;;;5.30;4.73;;;13.50;99.90;;;;;;5034815;28;20228;-69
2022/01/02 08:57:30;;;;;;;5.47;4.70;;;13.40;99.90;;;;;;5034920;28;20177;-69
2022/01/02 08:59:56;;;;;;;6.60;5.37;;;13.40;99.90;;;;;;5034811;28;20223;-69
2022/01/02 09:02:22;;;;;;;8.30;4.80;;;13.40;99.90;;;;;;5035477;28;20638;-70
2022/01/02 09:04:47;;;;;;;10.07;4.87;;;13.50;99.90;;;;;;5035162;28;20617;-71
2022/01/02 09:07:13;;;;;;;5.63;4.83;;;13.80;99.90;;;;;;5034708;28;20245;-71
2022/01/02 09:09:40;;;;;;;5.70;4.53;;;14.20;99.90;;;;;;5034560;28;20251;-71
2022/01/02 09:12:06;;;;;;;5.80;4.50;;;14.70;99.90;;;;;;5034806;28;20264;-70
2022/01/02 09:14:32;;;;;;;4.63;4.20;;;15.30;99.90;;;;;;5034577;28;20189;-70
2022/01/02 09:16:58;;;;;;;5.40;4.60;;;15.70;99.90;;;;;;5033518;28;20173;-70
2022/01/02 09:19:24;;;;;;;5.63;4.50;;;16.50;99.90;;;;;;5035000;28;20650;-71
2022/01/02 09:21:49;;;;;;;6.97;4.57;;;17.00;99.90;;;;;;5034759;28;20197;-70
2022/01/02 09:24:15;;;;;;;5.70;4.83;;;16.80;1.00;;;;;;5034110;28;20271;-71
2022/01/02 09:26:41;;;;;;;8.43;4.93;;;16.30;1.00;;;;;;5034296;28;20257;-70
2022/01/02 09:29:07;;;;;;;6.57;4.97;;;15.80;20.30;;;;;;5034379;28;20205;-70
2022/01/02 09:31:32;;;;;;;7.27;4.90;;;15.50;99.90;;;;;;5035285;28;20231;-71
2022/01/02 09:33:58;;;;;;;6.83;4.60;;;15.10;99.90;;;;;;5034439;28;20533;-71
2022/01/02 09:36:23;;;;;;;7.03;4.77;;;15.10;99.90;;;;;;5034492;28;20166;-69
2022/01/02 09:38:50;;;;;;;5.63;4.80;;;15.40;99.90;;;;;;5033903;28;20178;-70
2022/01/02 09:41:19;;;;;;;7.03;4.70;;;15.70;99.90;;;;;;5034289;28;20169;-70
2022/01/02 09:43:47;;;;;;;5.43;4.90;;;15.70;99.90;;;;;;5034098;28;20213;-70
2022/01/02 09:46:23;;;;;;;7.03;4.80;;;15.40;99.90;;;;;;5034760;28;20182;-70
2022/01/02 09:48:50;;;;;;;6.97;4.77;;;15.10;99.90;;;;;;5033759;28;20647;-71
2022/01/02 09:51:20;;;;;;;5.33;4.83;;;14.80;99.90;;;;;;5034241;28;20224;-71
2022/01/02 09:53:47;;;;;;;6.70;4.93;;;14.70;99.90;;;;;;5033953;28;20174;-70
2022/01/02 09:56:14;;;;;;;6.30;4.90;;;14.60;99.90;;;;;;5034478;28;20176;-70
2022/01/02 09:58:42;;;;;;;6.40;5.10;;;14.60;99.90;;;;;;5031289;28;20178;-71
2022/01/02 10:01:16;;;;;;;7.53;4.80;;;14.40;99.90;;;;;;5034318;28;20253;-71
2022/01/02 10:03:44;;;;;;;7.60;4.90;;;14.20;99.90;;;;;;5033589;28;20532;-71
2022/01/02 10:06:10;;;;;;;8.10;5.30;;;14.20;99.90;;;;;;5033432;28;20182;-71
2022/01/02 10:08:36;;;;;;;7.77;4.80;;;14.20;99.90;;;;;;5033289;28;20632;-70
2022/01/02 10:11:20;;;;;;;7.40;4.93;;;14.10;99.90;;;;;;5033967;28;20217;-70
2022/01/02 10:13:48;;;;;;;7.43;4.80;;;14.10;99.90;;;;;;5033969;28;20181;-70
2022/01/02 10:16:21;;;;;;;6.37;5.03;;;14.10;99.90;;;;;;5033470;28;20256;-70
2022/01/02 10:18:48;;;;;;;6.97;4.27;;;14.10;99.90;;;;;;5033625;28;20165;-70
2022/01/02 10:21:27;;;;;;;6.70;4.50;;;14.00;99.90;;;;;;5033213;28;20166;-71
2022/01/02 10:24:10;;;;;;;8.33;4.80;;;13.90;99.90;;;;;;5033459;28;20583;-71
2022/01/02 10:26:36;;;;;;;6.87;4.90;;;13.90;99.90;;;;;;5033548;28;20668;-70
2022/01/02 10:29:12;;;;;;;8.03;5.10;;;14.00;99.90;;;;;;5033441;28;20237;-70
2022/01/02 10:31:39;;;;;;;8.30;5.07;;;13.90;99.90;;;;;;5032180;28;20200;-70
2022/01/02 10:34:05;;;;;;;7.53;4.70;;;13.90;99.90;;;;;;5031807;28;20297;-70
2022/01/02 10:36:32;;;;;;;9.83;5.23;;;14.00;99.90;;;;;;5032825;28;20198;-70
2022/01/02 10:39:08;;;;;;;9.80;6.97;;;14.10;99.90;;;;;;5032660;28;20166;-70
2022/01/02 10:41:47;;;;;;;70.97;51.57;;;14.20;99.90;;;;;;5033250;28;20203;-71
2022/01/02 10:44:33;;;;;;;6.47;4.70;;;14.00;99.90;;;;;;5033008;28;20170;-69
2022/01/02 10:47:25;;;;;;;13.90;11.50;;;14.00;99.90;;;;;;5032712;28;20181;-69
2022/01/02 10:50:03;;;;;;;18.30;16.20;;;14.00;99.90;;;;;;5032198;28;20218;-70
2022/01/02 10:52:38;;;;;;;10.27;9.20;;;14.60;99.90;;;;;;5033071;28;20228;-72
2022/01/02 10:55:13;;;;;;;7.00;5.50;;;15.30;99.90;;;;;;5032719;28;20255;-71
2022/01/02 10:57:42;;;;;;;5.57;4.70;;;15.60;99.90;;;;;;5032393;28;20637;-72
2022/01/02 11:00:09;;;;;;;8.77;4.90;;;15.60;99.90;;;;;;5032272;28;20177;-71
2022/01/02 11:02:35;;;;;;;7.10;4.63;;;15.40;99.90;;;;;;5032721;28;20166;-71
2022/01/02 11:05:09;;;;;;;5.33;4.17;;;15.50;99.90;;;;;;5032063;28;20178;-71
2022/01/02 11:07:49;;;;;;;6.73;4.90;;;15.50;99.90;;;;;;5033165;28;20170;-71
2022/01/02 11:10:19;;;;;;;6.83;4.20;;;15.20;99.90;;;;;;5032286;28;20337;-71
2022/01/02 11:12:46;;;;;;;9.27;4.70;;;15.30;99.90;;;;;;5032831;28;20228;-71
2022/01/02 11:15:15;;;;;;;8.77;7.40;;;15.80;99.90;;;;;;5032480;28;20177;-71
2022/01/02 11:17:41;;;;;;;42.23;26.00;;;16.00;99.90;;;;;;5032456;28;20180;-71
2022/01/02 11:20:10;;;;;;;11.55;6.38;;;16.50;99.90;;;;;;5032574;28;20264;-71
2022/01/02 11:23:14;;;;;;;7.23;4.73;;;16.60;99.90;;;;;;5031381;28;20260;-70
2022/01/02 11:25:50;;;;;;;7.53;4.60;;;16.40;99.90;;;;;;5032250;28;20625;-70
2022/01/02 11:28:19;;;;;;;5.65;4.20;;;16.50;99.90;;;;;;5032476;28;20200;-72
2022/01/02 11:30:49;;;;;;;10.77;5.33;;;16.60;99.90;;;;;;5032454;28;20696;-72
2022/01/02 11:33:19;;;;;;;18.27;11.00;;;16.20;99.90;;;;;;5032548;28;20185;-71
2022/01/02 11:35:47;;;;;;;8.93;6.40;;;15.80;99.90;;;;;;5032600;28;20180;-71
2022/01/02 11:38:15;;;;;;;8.97;5.27;;;15.50;99.90;;;;;;5031473;28;20170;-72
2022/01/02 11:40:50;;;;;;;5.37;4.70;;;15.10;99.90;;;;;;5032558;28;20178;-73
2022/01/02 11:43:49;;;;;;;7.57;5.60;;;15.00;99.90;;;;;;5031098;28;20541;-71
2022/01/02 11:46:22;;;;;;;25.93;21.40;;;15.20;99.90;;;;;;5032332;28;20169;-70
2022/01/02 11:49:18;;;;;;;23.13;16.53;;;15.20;99.90;;;;;;5031583;28;20343;-71
2022/01/02 11:52:06;;;;;;;6.80;5.03;;;15.00;99.90;;;;;;5032489;28;20253;-71
2022/01/02 11:54:43;;;;;;;9.03;5.40;;;15.00;99.90;;;;;;5032039;28;20186;-71
2022/01/02 11:57:12;;;;;;;8.17;5.37;;;15.00;99.90;;;;;;5032179;28;20186;-72
2022/01/02 11:59:43;;;;;;;9.87;6.90;;;15.00;99.90;;;;;;5032313;28;20642;-71
2022/01/02 12:02:13;;;;;;;9.70;5.53;;;14.90;99.90;;;;;;5030832;28;20256;-70
2022/01/02 12:07:34;;;;;;;23.10;13.70;;;15.00;99.90;;;;;;5032119;28;20178;-72
2022/01/02 12:10:18;;;;;;;8.30;5.93;;;15.40;99.90;;;;;;5032031;28;20212;-72
2022/01/02 12:12:56;;;;;;;6.57;4.13;;;15.50;99.90;;;;;;5032440;28;20166;-71
2022/01/02 12:15:22;;;;;;;6.63;5.37;;;15.70;99.90;;;;;;5031801;28;20170;-71
2022/01/02 12:18:07;;;;;;;6.43;4.13;;;16.00;99.90;;;;;;5032163;28;20170;-70
2022/01/02 12:20:51;;;;;;;13.10;10.30;;;16.00;99.90;;;;;;5032421;28;20232;-72
2022/01/02 12:23:34;;;;;;;11.27;8.73;;;15.90;99.90;;;;;;5035296;28;20224;-72
2022/01/02 12:26:07;;;;;;;9.20;5.30;;;15.80;99.90;;;;;;5035213;28;20251;-71
2022/01/02 12:28:58;;;;;;;8.30;4.57;;;15.50;99.90;;;;;;5035216;28;20213;-71
2022/01/02 12:31:32;;;;;;;19.13;11.83;;;15.30;99.90;;;;;;5035413;28;20523;-72
2022/01/02 12:34:10;;;;;;;12.00;6.47;;;15.30;99.90;;;;;;5035680;28;20219;-71
2022/01/02 12:36:37;;;;;;;12.67;4.57;;;15.30;99.90;;;;;;5035149;28;20166;-71
2022/01/02 12:39:04;;;;;;;8.63;4.07;;;15.20;99.90;;;;;;5035649;28;20261;-71
2022/01/02 12:41:34;;;;;;;6.33;3.77;;;15.30;99.90;;;;;;5034963;28;20248;-71
2022/01/02 12:44:08;;;;;;;17.53;15.67;;;15.40;99.90;;;;;;5035430;28;20177;-71
2022/01/02 12:46:43;;;;;;;6.87;4.10;;;15.40;99.90;;;;;;5035110;28;20256;-71
2022/01/02 12:49:30;;;;;;;21.50;16.60;;;15.40;99.90;;;;;;5034775;28;20212;-71
2022/01/02 12:52:01;;;;;;;8.23;5.23;;;15.30;99.90;;;;;;5035184;28;20177;-71
2022/01/02 12:54:29;;;;;;;8.27;4.20;;;15.10;99.90;;;;;;5035069;28;20194;-71
2022/01/02 12:57:10;;;;;;;10.63;7.17;;;15.10;99.90;;;;;;5035039;28;20192;-70
2022/01/02 12:59:42;;;;;;;5.97;4.50;;;15.10;99.90;;;;;;5034569;28;20182;-72